createdAt,value
2023-03-22T00:01:47.309Z,15.05
2023-03-22T00:04:21.876Z,17.35
2023-03-22T00:06:54.054Z,14.58
2023-03-22T00:09:27.598Z,13.95
2023-03-22T00:18:24.990Z,13.98
2023-03-22T00:20:57.608Z,12.58
2023-03-22T00:23:30.721Z,12.73
2023-03-22T00:26:01.284Z,16.48
2023-03-22T00:28:31.891Z,12.33
2023-03-22T00:31:03.852Z,14.18
2023-03-22T00:33:34.915Z,12.78
2023-03-22T00:36:11.279Z,11.30
2023-03-22T00:38:44.444Z,13.62
2023-03-22T00:41:21.691Z,13.58
2023-03-22T00:43:53.263Z,12.30
2023-03-22T00:46:23.986Z,11.28
2023-03-22T00:48:54.678Z,10.93
2023-03-22T00:51:25.443Z,9.65
2023-03-22T00:53:55.948Z,11.63
2023-03-22T00:56:28.098Z,11.55
2023-03-22T00:58:59.771Z,11.53
2023-03-22T01:01:30.402Z,9.68
2023-03-22T01:04:02.801Z,11.25
2023-03-22T01:06:34.415Z,10.95
2023-03-22T01:09:05.329Z,9.85
2023-03-22T01:11:35.906Z,10.40
2023-03-22T01:14:06.484Z,10.03
2023-03-22T01:16:38.459Z,11.93
2023-03-22T01:19:09.153Z,10.38
2023-03-22T01:21:39.758Z,10.60
2023-03-22T01:24:10.342Z,10.65
2023-03-22T01:26:42.217Z,11.68
2023-03-22T01:29:14.556Z,9.98
2023-03-22T01:31:45.992Z,9.83
2023-03-22T01:34:16.516Z,8.03
2023-03-22T01:36:47.019Z,12.18
2023-03-22T01:39:20.179Z,10.30
2023-03-22T01:41:50.603Z,9.48
2023-03-22T01:44:25.362Z,10.63
2023-03-22T01:46:57.144Z,9.10
2023-03-22T01:49:31.312Z,8.78
2023-03-22T01:52:11.561Z,11.12
2023-03-22T01:54:45.054Z,8.65
2023-03-22T01:57:16.047Z,10.82
2023-03-22T01:59:50.164Z,10.58
2023-03-22T02:02:22.334Z,10.45
2023-03-22T02:04:54.900Z,9.90
2023-03-22T02:07:28.752Z,11.18
2023-03-22T02:10:00.257Z,11.18
2023-03-22T02:13:00.856Z,10.60
2023-03-22T02:15:49.322Z,9.88
2023-03-22T02:18:40.423Z,10.78
2023-03-22T02:21:42.201Z,10.25
2023-03-22T02:24:33.022Z,10.13
2023-03-22T02:27:30.834Z,9.53
2023-03-22T02:30:21.354Z,10.75
2023-03-22T02:33:16.426Z,10.00
2023-03-22T02:35:59.088Z,10.13
2023-03-22T02:38:52.975Z,10.28
2023-03-22T02:41:41.138Z,9.70
2023-03-22T02:44:24.532Z,10.88
2023-03-22T02:47:20.720Z,11.33
2023-03-22T02:50:08.856Z,10.60
2023-03-22T02:52:46.204Z,9.80
2023-03-22T02:55:25.610Z,9.60
2023-03-22T02:58:19.882Z,10.98
2023-03-22T03:00:53.381Z,9.60
2023-03-22T03:03:25.780Z,10.30
2023-03-22T03:06:01.989Z,10.88
2023-03-22T03:08:33.390Z,10.80
2023-03-22T03:11:04.276Z,11.12
2023-03-22T03:13:35.371Z,10.80
2023-03-22T03:16:18.843Z,10.98
2023-03-22T03:19:05.199Z,10.53
2023-03-22T03:22:03.448Z,10.13
2023-03-22T03:24:50.725Z,11.10
2023-03-22T03:27:31.664Z,9.95
2023-03-22T03:30:26.090Z,10.28
2023-03-22T03:33:13.791Z,10.75
2023-03-22T03:35:57.006Z,10.48
2023-03-22T03:38:35.825Z,11.38
2023-03-22T03:41:10.767Z,10.88
2023-03-22T03:43:47.792Z,11.22
2023-03-22T03:46:24.368Z,12.25
2023-03-22T03:52:11.168Z,10.18
2023-03-22T03:54:46.075Z,13.35
2023-03-22T03:57:30.891Z,11.65
2023-03-22T04:00:21.383Z,11.85
2023-03-22T04:05:50.849Z,12.73
2023-03-22T04:08:26.553Z,12.75
2023-03-22T04:10:59.822Z,11.85
2023-03-22T04:13:41.991Z,12.55
2023-03-22T04:16:16.430Z,13.10
2023-03-22T04:18:49.863Z,13.13
2023-03-22T04:21:23.665Z,14.20
2023-03-22T04:24:00.832Z,13.48
2023-03-22T04:26:37.794Z,13.20
2023-03-22T04:29:11.832Z,12.45
2023-03-22T04:31:52.753Z,12.80
2023-03-22T04:34:24.360Z,12.82
2023-03-22T04:37:05.687Z,13.13
2023-03-22T04:39:43.925Z,12.63
2023-03-22T04:42:18.377Z,12.50
2023-03-22T04:44:56.702Z,12.45
2023-03-22T04:47:29.199Z,12.78
2023-03-22T04:50:07.761Z,12.30
2023-03-22T04:52:40.805Z,11.95
2023-03-22T04:55:13.814Z,11.10
2023-03-22T04:57:51.232Z,12.75
2023-03-22T05:00:25.213Z,11.70
2023-03-22T05:03:06.606Z,12.30
2023-03-22T05:05:50.106Z,12.05
2023-03-22T05:08:28.542Z,11.73
2023-03-22T05:11:05.877Z,10.85
2023-03-22T05:13:43.951Z,10.63
2023-03-22T05:16:16.709Z,11.17
2023-03-22T05:18:55.039Z,11.63
2023-03-22T05:21:29.823Z,11.57
2023-03-22T05:24:05.882Z,11.33
2023-03-22T05:26:41.421Z,11.03
2023-03-22T05:29:19.320Z,10.43
2023-03-22T05:32:03.736Z,10.68
2023-03-22T05:34:42.042Z,11.33
2023-03-22T05:37:14.875Z,10.90
2023-03-22T05:39:48.724Z,10.32
2023-03-22T05:42:22.948Z,10.08
2023-03-22T05:44:59.627Z,10.50
2023-03-22T05:47:33.263Z,10.55
2023-03-22T05:50:15.370Z,11.50
2023-03-22T05:52:52.585Z,10.65
2023-03-22T05:55:33.989Z,11.70
2023-03-22T05:58:11.934Z,10.40
2023-03-22T06:00:43.414Z,10.35
2023-03-22T06:06:05.939Z,9.05
2023-03-22T06:08:43.586Z,9.90
2023-03-22T06:11:15.633Z,9.40
2023-03-22T06:13:54.299Z,9.80
2023-03-22T06:16:39.943Z,10.30
2023-03-22T06:19:12.093Z,10.18
2023-03-22T06:21:51.008Z,10.63
2023-03-22T06:24:27.347Z,9.20
2023-03-22T06:27:06.031Z,9.93
2023-03-22T06:29:41.738Z,10.20
2023-03-22T06:32:15.427Z,8.93
2023-03-22T06:34:49.630Z,9.55
2023-03-22T06:37:22.846Z,8.83
2023-03-22T06:39:56.409Z,8.85
2023-03-22T06:42:39.395Z,9.48
2023-03-22T06:45:14.987Z,8.80
2023-03-22T06:47:50.914Z,10.18
2023-03-22T06:50:26.155Z,8.58
2023-03-22T06:53:00.015Z,8.98
2023-03-22T06:55:35.553Z,8.15
2023-03-22T06:58:06.005Z,8.43
2023-03-22T07:00:39.223Z,8.30
2023-03-22T07:03:16.175Z,8.58
2023-03-22T07:05:52.181Z,8.90
2023-03-22T07:08:28.084Z,8.75
2023-03-22T07:11:04.813Z,8.65
2023-03-22T07:13:44.067Z,8.03
2023-03-22T07:16:23.639Z,8.60
2023-03-22T07:19:06.599Z,9.03
2023-03-22T07:21:44.960Z,9.83
2023-03-22T07:24:22.053Z,8.45
2023-03-22T07:26:53.200Z,8.75
2023-03-22T07:29:28.022Z,8.45
2023-03-22T07:32:03.045Z,8.47
2023-03-22T07:34:37.528Z,8.10
2023-03-22T07:37:09.890Z,8.53
2023-03-22T07:39:41.188Z,8.28
2023-03-22T07:42:12.867Z,8.85
2023-03-22T07:44:47.095Z,8.45
2023-03-22T07:47:40.287Z,8.03
2023-03-22T07:50:06.345Z,8.90
2023-03-22T07:52:41.628Z,8.43
2023-03-22T07:55:18.357Z,8.70
2023-03-22T07:57:58.330Z,8.63
2023-03-22T08:00:37.326Z,8.45
2023-03-22T08:03:11.986Z,9.63
2023-03-22T08:05:46.535Z,10.93
2023-03-22T08:08:25.584Z,10.68
2023-03-22T08:10:59.407Z,9.73
2023-03-22T08:13:41.878Z,9.03
2023-03-22T08:16:23.721Z,9.83
2023-03-22T08:19:10.159Z,10.88
2023-03-22T08:21:54.253Z,10.50
2023-03-22T08:24:30.078Z,9.33
2023-03-22T08:27:07.245Z,11.10
2023-03-22T08:29:42.226Z,9.98
2023-03-22T08:32:15.561Z,10.05
2023-03-22T08:34:47.286Z,11.45
2023-03-22T08:37:20.635Z,9.93
